Time;durP1;ratioP1;P1;durP2;ratioP2;P2;SDS_P1;SDS_P2;PMS_P1;PMS_P2;Temp;Humidity;BMP_temperature;BMP_pressure;BME280_temperature;BME280_humidity;BME280_pressure;Samples;Min_cycle;Max_cycle;Signal;HPM_P1;HPM_P2
2023/08/27 00:01:51;;;;;;;14.50;9.90;;;;;;;25.62;61.27;94708.50;5054971;28;20449;-81
2023/08/27 00:04:17;;;;;;;13.23;8.07;;;;;;;25.62;61.60;94703.13;5054544;28;20936;-82
2023/08/27 00:06:44;;;;;;;9.23;8.33;;;;;;;25.58;61.23;94700.06;5054983;28;20472;-82
2023/08/27 00:09:11;;;;;;;8.57;7.70;;;;;;;25.63;62.02;94704.75;5054113;28;20446;-82
2023/08/27 00:11:43;;;;;;;11.80;8.10;;;;;;;25.68;60.94;94699.53;5054742;28;20916;-82
2023/08/27 00:14:10;;;;;;;10.83;9.37;;;;;;;25.63;60.87;94694.00;5054826;28;20496;-81
2023/08/27 00:16:37;;;;;;;12.23;8.60;;;;;;;25.58;61.31;94696.56;5054670;28;20445;-82
2023/08/27 00:19:05;;;;;;;8.40;7.60;;;;;;;25.57;61.54;94693.06;5054441;28;20952;-82
2023/08/27 00:21:34;;;;;;;8.70;7.73;;;;;;;25.52;61.53;94682.16;5054887;28;20515;-82
2023/08/27 00:24:01;;;;;;;10.53;8.43;;;;;;;25.36;61.76;94677.41;5019295;28;20436;-82
2023/08/27 00:26:28;;;;;;;8.63;7.83;;;;;;;25.37;61.84;94671.00;5054820;28;20460;-82
2023/08/27 00:28:58;;;;;;;7.80;7.10;;;;;;;25.38;61.29;94680.69;5054495;28;20457;-83
2023/08/27 00:31:25;;;;;;;11.30;8.80;;;;;;;25.33;61.94;94673.31;5054325;28;20452;-81
2023/08/27 00:33:52;;;;;;;9.20;8.30;;;;;;;25.29;62.04;94682.88;5054428;28;20453;-82
2023/08/27 00:36:18;;;;;;;10.33;7.67;;;;;;;25.14;61.74;94684.28;5054315;28;20449;-82
2023/08/27 00:38:45;;;;;;;11.00;9.00;;;;;;;25.04;62.51;94676.78;5019181;28;20497;-81
2023/08/27 00:41:13;;;;;;;8.83;8.00;;;;;;;25.01;62.80;94678.03;5019064;28;20812;-82
2023/08/27 00:43:40;;;;;;;10.13;8.07;;;;;;;25.08;63.04;94675.28;5054207;28;20442;-82
2023/08/27 00:46:08;;;;;;;8.87;7.80;;;;;;;24.80;62.77;94674.94;5054326;28;20840;-82
2023/08/27 00:48:35;;;;;;;8.70;7.90;;;;;;;24.78;62.81;94669.81;5054067;28;20457;-82
2023/08/27 00:51:03;;;;;;;8.17;7.47;;;;;;;24.81;64.02;94664.00;5054232;28;20460;-82
2023/08/27 00:53:30;;;;;;;9.33;7.93;;;;;;;24.75;63.75;94661.38;5054321;28;20445;-82
2023/08/27 00:55:57;;;;;;;10.40;8.90;;;;;;;24.86;64.05;94666.00;5054123;28;20445;-81
2023/08/27 00:58:24;;;;;;;9.90;8.70;;;;;;;24.96;63.68;94669.81;5053607;28;20468;-81
2023/08/27 01:00:51;;;;;;;9.27;8.30;;;;;;;25.07;62.66;94668.28;5053718;28;20441;-82
2023/08/27 01:03:19;;;;;;;10.63;9.20;;;;;;;25.17;63.20;94668.56;5002495;28;20452;-82
2023/08/27 01:05:46;;;;;;;12.87;9.53;;;;;;;25.21;62.90;94672.44;5054196;28;20437;-81
2023/08/27 01:08:21;;;;;;;9.17;8.20;;;;;;;25.31;62.31;94661.97;5053624;28;20445;-81
2023/08/27 01:10:55;;;;;;;9.13;8.33;;;;;;;25.40;62.51;94659.78;5053910;28;20437;-82
2023/08/27 01:13:30;;;;;;;9.27;8.37;;;;;;;25.44;62.44;94660.16;5004346;28;20442;-82
2023/08/27 01:16:01;;;;;;;9.30;8.40;;;;;;;25.41;61.54;94664.13;5004036;28;20924;-82
2023/08/27 01:18:30;;;;;;;8.63;7.87;;;;;;;25.49;60.58;94663.00;5055007;28;20481;-82
2023/08/27 01:20:57;;;;;;;8.30;7.60;;;;;;;25.54;61.11;94655.06;5053648;28;20456;-82
2023/08/27 01:23:25;;;;;;;14.63;7.63;;;;;;;25.55;61.10;94660.22;5053598;28;20831;-82
2023/08/27 01:25:54;;;;;;;8.63;7.23;;;;;;;25.48;61.26;94664.06;5018450;28;20461;-80
2023/08/27 01:28:29;;;;;;;7.60;7.00;;;;;;;25.42;60.94;94654.19;5053068;28;20456;-82
2023/08/27 01:31:00;;;;;;;10.53;8.50;;;;;;;25.29;61.22;94656.00;5053528;28;20448;-82
2023/08/27 01:33:29;;;;;;;11.37;7.77;;;;;;;25.33;62.25;94646.44;5053362;28;20453;-82
2023/08/27 01:35:57;;;;;;;8.87;7.97;;;;;;;25.36;61.72;94655.09;5054322;28;20789;-82
2023/08/27 01:38:26;;;;;;;10.13;7.17;;;;;;;25.40;61.99;94654.41;5053808;28;20469;-82
2023/08/27 01:40:53;;;;;;;9.30;8.40;;;;;;;25.35;61.40;94653.47;5052791;28;20441;-82
2023/08/27 01:43:20;;;;;;;7.80;7.10;;;;;;;25.37;61.21;94656.75;5052685;28;20441;-81
2023/08/27 01:45:47;;;;;;;10.33;7.60;;;;;;;25.44;61.98;94658.28;5018471;28;20453;-83
2023/08/27 01:48:14;;;;;;;9.77;8.33;;;;;;;25.31;61.26;94664.66;5052907;28;20442;-82
2023/08/27 01:50:41;;;;;;;7.97;7.13;;;;;;;25.17;61.72;94673.94;5053322;28;20442;-81
2023/08/27 01:53:07;;;;;;;9.47;8.67;;;;;;;25.01;62.84;94674.53;5053015;28;20446;-81
2023/08/27 01:55:38;;;;;;;8.97;8.00;;;;;;;24.66;64.36;94672.41;5052920;28;20475;-80
2023/08/27 01:58:05;;;;;;;12.63;7.93;;;;;;;24.71;64.82;94675.25;5053047;28;20449;-82
2023/08/27 02:00:31;;;;;;;9.63;8.20;;;;;;;24.73;65.14;94674.22;5052754;28;20588;-82
2023/08/27 02:02:58;;;;;;;10.17;8.27;;;;;;;24.80;65.28;94672.25;5053101;28;20498;-82
2023/08/27 02:05:25;;;;;;;8.60;7.80;;;;;;;24.82;65.35;94670.19;5052718;28;20440;-82
2023/08/27 02:07:52;;;;;;;12.07;9.00;;;;;;;24.89;64.70;94663.72;5052655;28;20448;-82
2023/08/27 02:10:19;;;;;;;8.90;7.90;;;;;;;24.99;64.94;94665.91;5001668;28;20460;-83
2023/08/27 02:12:47;;;;;;;9.17;7.53;;;;;;;25.10;63.46;94673.19;5001810;28;20456;-83
2023/08/27 02:15:14;;;;;;;15.37;8.40;;;;;;;25.13;63.97;94662.00;5052800;28;20441;-82
2023/08/27 02:17:41;;;;;;;15.97;8.10;;;;;;;25.15;63.25;94665.28;5053023;28;20485;-83
2023/08/27 02:20:09;;;;;;;9.63;8.47;;;;;;;25.10;63.31;94665.13;5052464;28;21040;-81
2023/08/27 02:22:36;;;;;;;12.13;8.30;;;;;;;25.06;63.23;94653.19;5052760;28;20449;-82
2023/08/27 02:25:03;;;;;;;8.50;7.67;;;;;;;25.09;63.41;94663.50;5052690;28;20467;-82
2023/08/27 02:27:30;;;;;;;11.77;8.50;;;;;;;25.08;63.58;94658.34;5053455;28;20442;-81
2023/08/27 02:29:58;;;;;;;9.17;8.27;;;;;;;25.09;62.96;94659.97;5053085;28;20450;-81
2023/08/27 02:32:24;;;;;;;13.00;8.30;;;;;;;25.12;63.25;94659.53;5054453;28;20444;-82
2023/08/27 02:34:51;;;;;;;11.33;7.70;;;;;;;25.10;63.48;94657.06;5056412;28;20473;-81
2023/08/27 02:37:21;;;;;;;8.00;7.20;;;;;;;25.12;63.97;94660.34;5056674;28;20441;-83
2023/08/27 02:39:47;;;;;;;11.13;8.40;;;;;;;25.12;63.48;94660.34;5056272;28;20490;-82
2023/08/27 02:42:14;;;;;;;7.97;7.33;;;;;;;25.11;63.36;94652.53;5056553;28;20519;-82
2023/08/27 02:44:41;;;;;;;9.30;8.40;;;;;;;25.09;62.80;94658.13;5056403;28;20442;-82
2023/08/27 02:47:09;;;;;;;9.00;7.57;;;;;;;25.15;62.48;94653.72;5056456;28;20449;-82
2023/08/27 02:49:38;;;;;;;7.67;6.83;;;;;;;25.19;62.75;94653.06;5056226;28;20774;-83
2023/08/27 02:52:07;;;;;;;14.53;8.07;;;;;;;24.73;63.15;94658.94;5056437;28;20515;-82
2023/08/27 02:54:34;;;;;;;9.13;8.23;;;;;;;24.33;64.89;94650.47;5055957;28;20448;-81
2023/08/27 02:57:01;;;;;;;10.37;8.80;;;;;;;24.07;66.54;94652.31;5056161;28;20468;-83
2023/08/27 02:59:28;;;;;;;12.70;9.90;;;;;;;23.67;68.45;94653.63;5055995;28;20496;-82
2023/08/27 03:01:55;;;;;;;11.17;9.70;;;;;;;23.62;69.29;94658.81;5056399;28;20479;-82
2023/08/27 03:04:23;;;;;;;9.10;8.20;;;;;;;23.32;70.13;94648.66;5056048;28;20455;-81
2023/08/27 03:06:50;;;;;;;11.77;9.67;;;;;;;23.09;71.29;94656.38;5056305;28;20452;-82
2023/08/27 03:09:17;;;;;;;12.00;9.37;;;;;;;23.16;71.23;94658.03;5056100;28;20447;-82
2023/08/27 03:11:43;;;;;;;14.60;10.20;;;;;;;23.30;71.23;94652.59;5056047;28;20448;-82
2023/08/27 03:14:10;;;;;;;13.27;8.90;;;;;;;23.39;70.49;94656.66;5055842;28;20475;-82
2023/08/27 03:16:38;;;;;;;11.40;10.20;;;;;;;23.40;70.39;94656.44;5055742;28;20451;-82
2023/08/27 03:19:05;;;;;;;12.67;10.50;;;;;;;23.44;70.05;94652.31;5055747;28;20548;-81
2023/08/27 03:21:33;;;;;;;12.40;9.10;;;;;;;23.56;70.47;94660.50;5020425;28;20440;-82
2023/08/27 03:24:00;;;;;;;9.70;8.80;;;;;;;23.66;69.41;94662.69;5055858;28;20444;-81
2023/08/27 03:26:27;;;;;;;11.67;9.30;;;;;;;23.61;69.39;94654.50;5055593;28;20439;-82
2023/08/27 03:28:54;;;;;;;10.97;9.97;;;;;;;23.71;69.56;94657.53;5055636;28;20443;-82
2023/08/27 03:31:21;;;;;;;10.93;9.17;;;;;;;23.68;69.47;94658.75;5004025;28;20451;-83
2023/08/27 03:33:47;;;;;;;15.67;9.57;;;;;;;23.66;69.77;94660.03;5020485;28;20456;-81
2023/08/27 03:36:14;;;;;;;10.40;8.63;;;;;;;23.78;68.70;94666.34;5020935;28;20441;-82
2023/08/27 03:38:42;;;;;;;10.27;9.27;;;;;;;23.85;69.13;94661.75;5056551;28;20483;-82
2023/08/27 03:41:09;;;;;;;11.20;10.13;;;;;;;23.92;68.27;94670.56;5055201;28;20492;-80
2023/08/27 03:43:36;;;;;;;10.40;9.40;;;;;;;23.92;68.25;94673.22;5055360;28;20446;-82
2023/08/27 03:46:03;;;;;;;10.30;9.30;;;;;;;23.68;68.88;94674.00;5056866;28;20445;-81
2023/08/27 03:48:30;;;;;;;9.40;8.60;;;;;;;23.70;68.88;94666.59;5055589;28;20448;-81
2023/08/27 03:50:57;;;;;;;9.23;8.33;;;;;;;23.77;68.93;94686.13;5055392;28;20436;-81
2023/08/27 03:53:24;;;;;;;11.53;9.10;;;;;;;23.83;68.98;94687.94;5054865;28;20926;-81
2023/08/27 03:55:53;;;;;;;12.73;9.43;;;;;;;23.82;68.89;94683.63;5019897;28;20445;-80
2023/08/27 03:58:20;;;;;;;15.00;10.60;;;;;;;23.68;69.10;94676.69;5054576;28;20452;-81
2023/08/27 04:00:47;;;;;;;11.13;9.90;;;;;;;23.59;70.06;94686.03;5055088;28;20485;-80
2023/08/27 04:03:14;;;;;;;16.70;9.63;;;;;;;23.47;70.46;94684.03;5054550;28;20505;-81
2023/08/27 04:05:41;;;;;;;18.33;10.23;;;;;;;23.60;70.33;94691.19;5055401;28;20449;-80
2023/08/27 04:08:08;;;;;;;15.50;10.13;;;;;;;23.74;70.24;94694.63;5054627;28;20497;-81
2023/08/27 04:10:35;;;;;;;10.07;8.53;;;;;;;23.89;69.98;94694.28;5054244;28;20444;-81
2023/08/27 04:13:04;;;;;;;10.20;9.20;;;;;;;24.02;69.59;94689.69;5054548;28;20446;-81
2023/08/27 04:15:31;;;;;;;13.80;9.77;;;;;;;24.10;68.60;94692.06;5003152;28;20451;-81
2023/08/27 04:17:57;;;;;;;11.17;10.07;;;;;;;24.14;68.70;94694.31;5054952;28;20479;-80
2023/08/27 04:20:24;;;;;;;10.83;9.13;;;;;;;24.24;68.51;94694.63;5054624;28;20487;-81
2023/08/27 04:22:51;;;;;;;10.30;9.07;;;;;;;24.53;67.37;94693.19;5055250;28;20452;-81
2023/08/27 04:25:18;;;;;;;9.27;8.00;;;;;;;24.91;65.51;94695.69;5054449;28;20433;-81
2023/08/27 04:27:45;;;;;;;9.47;8.30;;;;;;;25.33;63.63;94705.56;5003074;28;20450;-81
2023/08/27 04:30:14;;;;;;;10.73;7.13;;;;;;;25.71;62.58;94707.16;5054206;28;20456;-81
2023/08/27 04:32:41;;;;;;;11.40;8.20;;;;;;;26.05;59.85;94699.44;5022380;28;20468;-80
2023/08/27 04:35:08;;;;;;;10.63;8.20;;;;;;;26.42;58.74;94698.25;5074101;28;20456;-80
2023/08/27 04:37:35;;;;;;;8.43;7.40;;;;;;;26.73;58.31;94696.25;5074279;28;20439;-82
2023/08/27 04:40:03;;;;;;;10.17;7.97;;;;;;;27.19;56.33;94697.31;5022615;28;20767;-81
2023/08/27 04:42:30;;;;;;;8.80;7.60;;;;;;;27.54;55.25;94694.50;5074758;28;20790;-80
2023/08/27 04:44:57;;;;;;;10.53;7.70;;;;;;;27.92;54.23;94694.72;5074166;28;20441;-80
2023/08/27 04:47:25;;;;;;;8.40;7.60;;;;;;;28.30;52.94;94698.63;5073752;28;20447;-80
2023/08/27 04:49:51;;;;;;;7.83;7.23;;;;;;;28.48;52.42;94694.88;5074212;28;20452;-80
2023/08/27 04:52:18;;;;;;;9.27;8.40;;;;;;;28.51;52.47;94694.38;5073614;28;20443;-81
2023/08/27 04:54:45;;;;;;;10.57;7.87;;;;;;;28.79;51.98;94696.97;5074016;28;21111;-81
2023/08/27 04:57:12;;;;;;;8.83;6.90;;;;;;;29.16;52.31;94702.66;5073401;28;20777;-80
2023/08/27 04:59:39;;;;;;;12.17;8.63;;;;;;;29.58;50.03;94705.66;5021715;28;20445;-84
2023/08/27 05:02:06;;;;;;;16.40;9.40;;;;;;;29.71;49.72;94700.94;5074080;28;20855;-81
2023/08/27 05:04:34;;;;;;;20.53;15.20;;;;;;;29.70;49.57;94702.00;5074214;28;20781;-80
2023/08/27 05:07:01;;;;;;;24.77;19.33;;;;;;;29.74;48.94;94705.84;5073702;28;20441;-79
2023/08/27 05:09:27;;;;;;;40.27;20.80;;;;;;;29.87;49.17;94702.75;5022878;28;20449;-80
2023/08/27 05:11:54;;;;;;;20.60;12.33;;;;;;;30.06;48.53;94706.75;5073880;28;20433;-80
2023/08/27 05:14:21;;;;;;;20.97;14.67;;;;;;;30.23;47.96;94708.53;5073870;28;20924;-78
2023/08/27 05:16:48;;;;;;;17.50;10.33;;;;;;;30.15;48.54;94707.94;5074108;28;20452;-79
2023/08/27 05:19:14;;;;;;;9.70;8.50;;;;;;;30.20;48.45;94707.97;5073495;28;20464;-79
2023/08/27 05:21:43;;;;;;;16.73;10.87;;;;;;;30.26;48.11;94703.41;5073864;28;21011;-80
2023/08/27 05:24:09;;;;;;;14.60;10.50;;;;;;;30.37;48.96;94712.47;5073955;28;20523;-80
2023/08/27 05:26:36;;;;;;;35.23;21.10;;;;;;;30.45;47.94;94709.28;5074093;28;20448;-80
2023/08/27 05:29:04;;;;;;;22.20;14.70;;;;;;;30.66;47.68;94704.88;5073276;28;20440;-80
2023/08/27 05:31:31;;;;;;;45.23;28.50;;;;;;;30.66;49.16;94707.59;5074100;28;20448;-79
2023/08/27 05:33:57;;;;;;;25.13;15.67;;;;;;;30.69;47.02;94709.78;5074138;28;20437;-79
2023/08/27 05:36:24;;;;;;;21.77;15.53;;;;;;;30.66;47.59;94708.41;5074641;28;20445;-78
2023/08/27 05:38:52;;;;;;;37.47;21.13;;;;;;;30.68;47.55;94710.84;5073575;28;20455;-80
2023/08/27 05:41:19;;;;;;;35.77;18.70;;;;;;;30.74;47.32;94713.34;5073618;28;20487;-81
2023/08/27 05:43:46;;;;;;;24.27;16.80;;;;;;;30.97;48.85;94723.00;5073925;28;20449;-80
2023/08/27 05:46:13;;;;;;;15.83;10.73;;;;;;;31.17;45.86;94713.34;5073813;28;20441;-81
2023/08/27 05:48:40;;;;;;;14.33;11.40;;;;;;;31.30;46.85;94716.44;5073791;28;20447;-81
2023/08/27 05:51:07;;;;;;;14.13;11.20;;;;;;;31.44;45.70;94714.84;5073916;28;20436;-82
2023/08/27 05:53:34;;;;;;;9.90;8.80;;;;;;;31.48;45.45;94715.16;5073193;28;20494;-81
2023/08/27 05:56:03;;;;;;;12.40;9.53;;;;;;;31.60;45.97;94709.50;5073197;28;20505;-81
2023/08/27 05:58:30;;;;;;;9.97;9.07;;;;;;;31.76;44.77;94713.94;5073116;28;21153;-78
2023/08/27 06:00:57;;;;;;;11.10;9.30;;;;;;;31.88;43.92;94700.97;5071323;28;20484;-80
2023/08/27 06:03:25;;;;;;;11.30;9.90;;;;;;;32.17;44.53;94709.44;5072954;28;21213;-79
2023/08/27 06:05:54;;;;;;;9.63;8.40;;;;;;;32.33;42.93;94700.22;5072978;28;20475;-79
2023/08/27 06:08:21;;;;;;;8.90;8.00;;;;;;;32.52;42.16;94697.81;5076725;28;20449;-79
2023/08/27 06:10:48;;;;;;;10.50;9.43;;;;;;;32.79;42.30;94702.19;5076678;28;20440;-79
2023/08/27 06:13:16;;;;;;;12.23;9.37;;;;;;;33.07;41.26;94700.78;5076953;28;20444;-79
2023/08/27 06:15:43;;;;;;;9.50;8.70;;;;;;;33.24;40.87;94695.81;5076918;28;20931;-79
2023/08/27 06:18:10;;;;;;;9.37;8.50;;;;;;;33.33;40.58;94698.84;5076798;28;20469;-80
2023/08/27 06:20:37;;;;;;;10.70;8.50;;;;;;;33.51;39.87;94698.22;5076795;28;20484;-79
2023/08/27 06:23:05;;;;;;;9.90;9.00;;;;;;;33.42;39.82;94691.72;5076626;28;20441;-80
2023/08/27 06:25:33;;;;;;;9.67;8.40;;;;;;;33.07;40.89;94689.91;5076719;28;20476;-79
2023/08/27 06:28:00;;;;;;;10.67;9.50;;;;;;;32.35;42.12;94689.09;5076442;28;20429;-79
2023/08/27 06:30:28;;;;;;;9.87;8.93;;;;;;;32.11;43.32;94683.38;5076426;28;20456;-79
2023/08/27 06:32:55;;;;;;;10.03;8.90;;;;;;;32.26;43.30;94682.59;5076777;28;20445;-79
2023/08/27 06:35:23;;;;;;;10.90;9.10;;;;;;;32.24;43.19;94688.25;5076468;28;20449;-79
2023/08/27 06:37:49;;;;;;;13.90;9.20;;;;;;;32.00;43.55;94676.25;5076190;28;20441;-79
2023/08/27 06:40:16;;;;;;;14.13;8.70;;;;;;;31.99;43.59;94674.63;5076368;28;20484;-79
2023/08/27 06:42:43;;;;;;;13.60;8.30;;;;;;;32.11;43.23;94677.94;5040620;28;20436;-79
2023/08/27 06:45:11;;;;;;;8.70;7.80;;;;;;;32.20;43.73;94675.50;5076569;28;20468;-79
2023/08/27 06:47:39;;;;;;;10.60;8.67;;;;;;;32.21;43.03;94677.94;5076322;28;20455;-79
2023/08/27 06:50:07;;;;;;;9.93;7.60;;;;;;;32.21;43.22;94679.84;5076313;28;20444;-79
2023/08/27 06:52:34;;;;;;;14.23;8.47;;;;;;;32.19;42.03;94679.28;5076077;28;20445;-79
2023/08/27 06:55:03;;;;;;;10.70;8.43;;;;;;;32.23;42.55;94673.03;5075905;28;20444;-80
2023/08/27 06:57:30;;;;;;;8.67;7.67;;;;;;;32.31;42.17;94677.97;5076116;28;20448;-79
2023/08/27 06:59:57;;;;;;;8.53;7.73;;;;;;;32.52;42.44;94676.06;5075927;28;20912;-79
2023/08/27 07:02:24;;;;;;;7.67;7.00;;;;;;;32.15;43.32;94672.78;5075694;28;20818;-79
2023/08/27 07:04:52;;;;;;;7.70;6.90;;;;;;;32.29;43.83;94673.88;5076005;28;20445;-78
2023/08/27 07:07:18;;;;;;;8.47;7.67;;;;;;;32.27;41.63;94671.44;5076098;28;20452;-79
2023/08/27 07:09:46;;;;;;;7.80;7.00;;;;;;;32.14;40.39;94682.81;5075789;28;20436;-78
2023/08/27 07:12:13;;;;;;;7.07;6.37;;;;;;;31.89;42.17;94685.47;5075689;28;20440;-78
2023/08/27 07:14:40;;;;;;;9.47;7.10;;;;;;;31.96;41.89;94681.41;5075809;28;20904;-80
2023/08/27 07:17:07;;;;;;;10.43;8.23;;;;;;;31.94;42.57;94675.44;5075347;28;20461;-80
2023/08/27 07:19:33;;;;;;;10.40;8.00;;;;;;;32.08;42.20;94681.16;5075073;28;20437;-79
2023/08/27 07:22:02;;;;;;;9.47;8.57;;;;;;;32.09;42.68;94685.50;5075396;28;21093;-79
2023/08/27 07:24:29;;;;;;;9.10;8.20;;;;;;;32.19;43.79;94682.00;5075384;28;20448;-78
2023/08/27 07:26:56;;;;;;;11.60;7.57;;;;;;;32.52;42.78;94673.34;5075219;28;20883;-79
2023/08/27 07:29:23;;;;;;;8.67;7.30;;;;;;;33.16;41.11;94691.78;5075804;28;20456;-80
2023/08/27 07:31:49;;;;;;;10.63;7.87;;;;;;;33.26;39.95;94686.31;5076073;28;20444;-79
2023/08/27 07:34:16;;;;;;;8.70;7.77;;;;;;;33.39;39.05;94695.00;5059236;28;20433;-79
2023/08/27 07:36:43;;;;;;;9.80;8.47;;;;;;;33.33;39.20;94688.78;5065719;28;20900;-79
2023/08/27 07:39:11;;;;;;;10.60;8.17;;;;;;;33.32;39.55;94681.72;5073841;28;20445;-80
2023/08/27 07:41:39;;;;;;;9.00;8.10;;;;;;;33.33;39.19;94677.09;5065125;28;20477;-77
2023/08/27 07:44:06;;;;;;;9.90;8.17;;;;;;;33.32;39.63;94680.91;5063670;28;20446;-81
2023/08/27 07:46:33;;;;;;;8.70;7.80;;;;;;;33.28;39.96;94679.78;5059778;28;20461;-81
2023/08/27 07:48:59;;;;;;;8.50;7.70;;;;;;;33.35;39.64;94674.91;5075507;28;20445;-78
2023/08/27 07:51:26;;;;;;;11.57;8.00;;;;;;;33.38;39.24;94671.63;5075118;28;20449;-80
2023/08/27 07:53:53;;;;;;;11.10;7.67;;;;;;;33.36;38.84;94674.63;5074638;28;20852;-80
2023/08/27 07:56:21;;;;;;;9.20;7.30;;;;;;;33.43;38.13;94669.69;5074809;28;20444;-81
2023/08/27 07:58:48;;;;;;;9.17;8.30;;;;;;;33.41;39.23;94673.78;5075083;28;20458;-81
2023/08/27 08:01:15;;;;;;;8.83;8.03;;;;;;;33.41;38.47;94668.34;5075281;28;20507;-81
2023/08/27 08:03:42;;;;;;;11.13;8.60;;;;;;;33.41;38.66;94663.72;5074406;28;20445;-81
2023/08/27 08:06:09;;;;;;;12.97;8.50;;;;;;;33.49;38.72;94665.03;5074169;28;20857;-79
2023/08/27 08:08:36;;;;;;;9.37;8.57;;;;;;;33.56;39.72;94657.41;5064110;28;20434;-80
2023/08/27 08:11:03;;;;;;;9.30;8.50;;;;;;;33.66;38.14;94656.53;5057589;28;20938;-80
2023/08/27 08:13:32;;;;;;;9.03;8.23;;;;;;;33.81;37.74;94651.00;5073838;28;20460;-80
2023/08/27 08:15:58;;;;;;;11.60;7.97;;;;;;;33.96;38.21;94650.13;5073907;28;20436;-80
2023/08/27 08:18:25;;;;;;;8.30;7.60;;;;;;;34.11;39.13;94645.38;5053911;28;20473;-80
2023/08/27 08:20:53;;;;;;;10.43;9.00;;;;;;;34.34;38.07;94649.31;5073455;28;20492;-81
2023/08/27 08:23:20;;;;;;;10.20;9.10;;;;;;;34.51;37.63;94650.84;5073594;28;20444;-81
2023/08/27 08:25:50;;;;;;;10.57;9.07;;;;;;;34.70;37.21;94643.59;5074171;28;20440;-81
2023/08/27 08:28:17;;;;;;;13.10;9.67;;;;;;;34.67;36.63;94642.22;5073817;28;20498;-81
2023/08/27 08:30:49;;;;;;;9.70;8.80;;;;;;;34.56;36.85;94637.16;5073205;28;20441;-81
2023/08/27 08:33:17;;;;;;;10.07;9.00;;;;;;;34.47;36.64;94636.97;5073795;28;20441;-80
2023/08/27 08:35:44;;;;;;;10.00;9.17;;;;;;;34.56;37.17;94629.00;5073323;28;20958;-80
2023/08/27 08:38:11;;;;;;;12.00;9.30;;;;;;;34.55;37.84;94632.81;5073451;28;20432;-80
2023/08/27 08:40:44;;;;;;;9.53;8.60;;;;;;;34.75;37.47;94630.72;5073571;28;20449;-80
2023/08/27 08:43:20;;;;;;;9.70;8.90;;;;;;;34.79;36.20;94634.50;5073630;28;20911;-80
2023/08/27 08:45:57;;;;;;;12.50;8.83;;;;;;;34.73;36.85;94626.66;5073107;28;20791;-80
2023/08/27 08:48:27;;;;;;;11.03;8.40;;;;;;;34.64;36.37;94620.19;5073175;28;20437;-81
2023/08/27 08:50:55;;;;;;;11.10;8.33;;;;;;;34.55;36.81;94613.75;5072488;28;20527;-81
2023/08/27 08:53:25;;;;;;;8.97;8.20;;;;;;;34.47;35.64;94615.19;5073310;28;20448;-84
2023/08/27 08:56:01;;;;;;;9.77;8.70;;;;;;;34.50;36.18;94616.50;5073151;28;20906;-80
2023/08/27 08:58:31;;;;;;;8.33;7.53;;;;;;;34.22;35.90;94615.34;5072674;28;20436;-80
2023/08/27 09:00:59;;;;;;;12.00;7.97;;;;;;;34.19;36.30;94608.56;5073051;28;20440;-80
2023/08/27 09:03:28;;;;;;;8.57;7.63;;;;;;;34.16;36.37;94603.69;5073483;28;20445;-80
2023/08/27 09:05:56;;;;;;;8.23;7.43;;;;;;;34.25;36.47;94596.53;5073176;28;20521;-81
2023/08/27 09:08:23;;;;;;;13.23;8.37;;;;;;;34.25;35.91;94588.34;5021531;28;20523;-81
2023/08/27 09:10:52;;;;;;;12.83;7.93;;;;;;;34.33;36.51;94590.44;5072840;28;20454;-80
2023/08/27 09:13:21;;;;;;;8.17;7.47;;;;;;;34.33;36.78;94595.91;5073197;28;20471;-80
2023/08/27 09:15:48;;;;;;;11.90;8.20;;;;;;;34.17;35.19;94594.44;5072987;28;20441;-81
2023/08/27 09:18:17;;;;;;;7.83;7.07;;;;;;;33.55;36.08;94595.91;5072631;28;20537;-80
2023/08/27 09:20:44;;;;;;;13.53;7.53;;;;;;;33.80;36.25;94595.72;5073041;28;20440;-80
2023/08/27 09:23:13;;;;;;;12.63;9.10;;;;;;;34.06;36.43;94580.06;5072229;28;20848;-79
2023/08/27 09:25:40;;;;;;;8.90;8.07;;;;;;;34.26;35.99;94578.28;5072043;28;20467;-80
2023/08/27 09:28:07;;;;;;;9.73;6.73;;;;;;;34.43;35.38;94586.88;5072430;28;20441;-80
2023/08/27 09:30:34;;;;;;;9.13;7.47;;;;;;;34.60;35.05;94587.25;5072544;28;20437;-79
2023/08/27 09:33:01;;;;;;;9.20;7.07;;;;;;;34.65;35.16;94583.66;5053751;28;20858;-80
2023/08/27 09:35:38;;;;;;;8.90;7.40;;;;;;;34.65;34.84;94579.00;5072523;28;20456;-80
2023/08/27 09:38:05;;;;;;;8.40;7.57;;;;;;;34.67;34.79;94576.00;5071819;28;20476;-80
2023/08/27 09:40:32;;;;;;;8.30;7.50;;;;;;;34.67;35.17;94579.53;5072353;28;20447;-80
2023/08/27 09:43:07;;;;;;;8.27;7.47;;;;;;;34.60;34.54;94575.53;5071716;28;20485;-79
2023/08/27 09:45:34;;;;;;;8.63;7.23;;;;;;;34.53;34.76;94569.59;5072404;28;20444;-80
2023/08/27 09:48:02;;;;;;;8.17;7.43;;;;;;;34.54;35.36;94560.31;5072426;28;20923;-80
2023/08/27 09:50:30;;;;;;;10.30;7.57;;;;;;;34.50;35.03;94560.09;5071917;28;20437;-80
2023/08/27 09:53:12;;;;;;;8.53;7.73;;;;;;;34.55;34.85;94557.31;5071940;28;20954;-79
2023/08/27 09:55:40;;;;;;;8.47;7.40;;;;;;;34.55;34.98;94556.50;5072548;28;20432;-79
2023/08/27 09:58:09;;;;;;;12.70;7.03;;;;;;;34.50;34.90;94542.94;5072448;28;20938;-79
2023/08/27 10:00:37;;;;;;;8.33;7.53;;;;;;;34.42;35.26;94549.84;5071753;28;20441;-80
2023/08/27 10:03:05;;;;;;;10.87;7.33;;;;;;;34.34;34.77;94548.50;5071864;28;20526;-79
2023/08/27 10:05:34;;;;;;;7.97;7.20;;;;;;;34.33;35.91;94554.22;5072331;28;20444;-79
2023/08/27 10:08:02;;;;;;;8.00;7.20;;;;;;;34.28;35.69;94557.81;5072508;28;20484;-79
2023/08/27 10:10:31;;;;;;;8.13;7.03;;;;;;;34.24;36.10;94553.22;5072343;28;20472;-88
2023/08/27 10:12:59;;;;;;;10.23;7.20;;;;;;;34.12;35.91;94548.16;5072661;28;20449;-87
2023/08/27 10:15:27;;;;;;;9.00;6.90;;;;;;;34.03;36.39;94545.22;5072113;28;20437;-87
2023/08/27 10:17:56;;;;;;;7.40;6.60;;;;;;;33.95;36.20;94540.41;5072232;28;20858;-87
2023/08/27 10:20:23;;;;;;;11.30;7.03;;;;;;;33.95;36.99;94545.03;5072388;28;20452;-89
2023/08/27 10:22:50;;;;;;;11.83;7.63;;;;;;;33.67;35.60;94541.13;5072976;28;20484;-88
2023/08/27 10:25:18;;;;;;;8.93;6.13;;;;;;;33.55;36.17;94536.84;5072143;28;20947;-81
2023/08/27 10:27:49;;;;;;;10.83;8.00;;;;;;;33.47;37.87;94531.97;5072239;28;20525;-81
2023/08/27 10:30:17;;;;;;;8.13;7.40;;;;;;;33.45;36.70;94527.91;5071602;28;20536;-81
2023/08/27 10:32:44;;;;;;;8.03;6.53;;;;;;;33.51;36.13;94522.16;5072447;28;20448;-81
2023/08/27 10:35:12;;;;;;;13.00;7.97;;;;;;;33.63;36.71;94524.53;5071857;28;20944;-81
2023/08/27 10:37:41;;;;;;;14.13;7.40;;;;;;;33.70;36.40;94519.59;5072018;28;20449;-81
2023/08/27 10:40:10;;;;;;;8.00;7.30;;;;;;;33.77;38.01;94511.09;5071731;28;20444;-82
2023/08/27 10:42:38;;;;;;;7.60;6.87;;;;;;;33.74;35.97;94509.75;5071940;28;20583;-80
2023/08/27 10:45:15;;;;;;;7.90;7.10;;;;;;;33.71;35.63;94514.97;5036449;28;20445;-81
2023/08/27 10:47:43;;;;;;;8.43;6.40;;;;;;;33.67;35.41;94503.81;5071980;28;20476;-81
2023/08/27 10:50:10;;;;;;;9.53;6.67;;;;;;;33.66;35.93;94504.94;5072123;28;20475;-81
2023/08/27 10:52:50;;;;;;;9.30;7.13;;;;;;;33.73;35.47;94502.69;5072748;28;20494;-81
2023/08/27 10:55:21;;;;;;;9.73;6.87;;;;;;;33.74;37.22;94504.31;5075463;28;20919;-81
2023/08/27 10:57:48;;;;;;;8.80;7.20;;;;;;;33.66;36.76;94496.75;5075474;28;20531;-80
2023/08/27 11:00:17;;;;;;;9.03;6.40;;;;;;;33.50;36.03;94497.94;5082802;28;20467;-82
2023/08/27 11:02:57;;;;;;;12.50;7.23;;;;;;;33.45;36.09;94490.63;5043804;28;20490;-82
2023/08/27 11:05:28;;;;;;;11.63;7.03;;;;;;;33.55;37.13;94489.78;5096103;28;20468;-80
2023/08/27 11:07:59;;;;;;;7.10;6.40;;;;;;;33.58;35.78;94488.41;5096382;28;20528;-81
2023/08/27 11:10:32;;;;;;;15.00;7.53;;;;;;;33.58;36.40;94482.94;5095732;28;20491;-78
2023/08/27 11:12:59;;;;;;;9.13;7.77;;;;;;;33.53;36.08;94475.63;5096139;28;20471;-81
2023/08/27 11:15:31;;;;;;;9.37;7.00;;;;;;;33.36;35.57;94481.47;5093369;28;20498;-80
2023/08/27 11:17:59;;;;;;;7.73;6.80;;;;;;;33.37;36.34;94482.28;5088508;28;20567;-80
2023/08/27 11:20:27;;;;;;;9.30;6.90;;;;;;;33.25;36.96;94479.84;5023598;28;20803;-79
2023/08/27 11:22:56;;;;;;;13.87;6.83;;;;;;;33.18;36.97;94471.19;5075178;28;20488;-79
2023/08/27 11:25:25;;;;;;;8.60;7.80;;;;;;;33.17;37.54;94470.38;5075551;28;20437;-81
2023/08/27 11:27:52;;;;;;;7.37;6.67;;;;;;;33.34;37.46;94463.81;5075227;28;20817;-79
2023/08/27 11:30:19;;;;;;;8.30;7.00;;;;;;;33.25;36.48;94464.38;5074983;28;20452;-79
2023/08/27 11:32:48;;;;;;;7.07;6.47;;;;;;;33.26;39.03;94465.19;5075724;28;20436;-79